createdAt,value
2018-09-08T00:00:01.089Z,21.95
2018-09-08T00:02:33.750Z,21.97
2018-09-08T00:05:04.064Z,21.92
2018-09-08T00:07:38.298Z,21.82
2018-09-08T00:10:12.417Z,21.80
2018-09-08T00:12:42.806Z,21.79
2018-09-08T00:15:18.775Z,21.80
2018-09-08T00:17:54.975Z,21.86
2018-09-08T00:20:29.991Z,21.79
2018-09-08T00:23:05.213Z,21.78
2018-09-08T00:25:40.196Z,21.68
2018-09-08T00:28:29.121Z,21.63
2018-09-08T00:31:01.039Z,21.61
2018-09-08T00:33:31.448Z,21.66
2018-09-08T00:36:01.753Z,21.65
2018-09-08T00:38:32.914Z,21.62
2018-09-08T00:41:04.377Z,21.61
2018-09-08T00:43:34.885Z,21.56
2018-09-08T00:46:06.210Z,21.41
2018-09-08T00:48:36.864Z,21.36
2018-09-08T00:51:07.211Z,21.25
2018-09-08T00:53:37.425Z,21.14
2018-09-08T00:56:07.740Z,20.95
2018-09-08T00:58:37.875Z,20.81
2018-09-08T01:01:07.843Z,20.80
2018-09-08T01:03:38.362Z,20.82
2018-09-08T01:06:08.910Z,20.77
2018-09-08T01:08:39.958Z,20.70
2018-09-08T01:11:10.495Z,20.54
2018-09-08T01:13:41.404Z,20.54
2018-09-08T01:16:13.289Z,20.49
2018-09-08T01:18:43.775Z,20.46
2018-09-08T01:21:13.927Z,20.54
2018-09-08T01:23:48.175Z,20.62
2018-09-08T01:26:20.855Z,20.66
2018-09-08T01:28:51.889Z,20.71
2018-09-08T01:31:22.421Z,20.79
2018-09-08T01:33:52.857Z,20.85
2018-09-08T01:36:24.153Z,20.88
2018-09-08T01:38:55.081Z,20.84
2018-09-08T01:41:25.475Z,20.86
2018-09-08T01:43:56.103Z,20.88
2018-09-08T01:46:28.767Z,20.93
2018-09-08T01:48:58.993Z,20.89
2018-09-08T01:51:28.881Z,20.98
2018-09-08T01:53:59.032Z,20.97
2018-09-08T01:56:29.416Z,21.03
2018-09-08T01:58:59.570Z,21.09
2018-09-08T02:01:29.823Z,21.07
2018-09-08T02:04:00.152Z,21.04
2018-09-08T02:06:30.822Z,21.06
2018-09-08T02:09:02.035Z,21.10
2018-09-08T02:11:33.025Z,21.16
2018-09-08T02:14:03.953Z,21.21
2018-09-08T02:16:35.131Z,21.19
2018-09-08T02:19:05.674Z,21.10
2018-09-08T02:21:36.204Z,21.07
2018-09-08T02:24:06.535Z,20.99
2018-09-08T02:26:36.675Z,20.94
2018-09-08T02:29:07.102Z,20.89
2018-09-08T02:31:37.780Z,20.78
2018-09-08T02:34:08.942Z,20.81
2018-09-08T02:36:39.354Z,20.77
2018-09-08T02:39:10.621Z,20.76
2018-09-08T02:41:40.871Z,20.64
2018-09-08T02:44:11.304Z,20.58
2018-09-08T02:46:43.784Z,20.63
2018-09-08T02:49:13.878Z,20.55
2018-09-08T02:51:41.945Z,20.40
2018-09-08T02:54:10.851Z,20.25
2018-09-08T02:56:38.926Z,20.23
2018-09-08T02:59:07.257Z,20.05
2018-09-08T03:01:36.345Z,20.10
2018-09-08T03:04:04.458Z,20.10
2018-09-08T03:06:32.619Z,20.26
2018-09-08T03:09:00.911Z,20.30
2018-09-08T03:11:29.307Z,20.26
2018-09-08T03:13:57.616Z,20.25
2018-09-08T03:16:25.953Z,20.18
2018-09-08T03:18:54.918Z,20.13
2018-09-08T03:21:23.069Z,20.12
2018-09-08T03:23:51.387Z,20.10
2018-09-08T03:26:19.926Z,20.10
2018-09-08T03:28:48.921Z,20.13
2018-09-08T03:31:16.943Z,20.14
2018-09-08T03:33:45.122Z,20.17
2018-09-08T03:36:13.644Z,20.06
2018-09-08T03:38:42.782Z,19.93
2018-09-08T03:41:11.736Z,19.89
2018-09-08T03:43:39.882Z,19.79
2018-09-08T03:46:08.727Z,19.84
2018-09-08T03:48:38.058Z,19.95
2018-09-08T03:51:06.192Z,19.95
2018-09-08T03:53:34.246Z,19.96
2018-09-08T03:56:03.421Z,20.09
2018-09-08T03:58:31.672Z,20.14
2018-09-08T04:00:59.699Z,20.23
2018-09-08T04:03:29.700Z,20.32
2018-09-08T04:05:59.915Z,20.41
2018-09-08T04:08:30.729Z,20.49
2018-09-08T04:11:01.037Z,20.56
2018-09-08T04:13:31.356Z,20.64
2018-09-08T04:16:01.656Z,20.84
2018-09-08T04:18:32.173Z,20.85
2018-09-08T04:21:02.255Z,20.98
2018-09-08T04:23:32.376Z,21.13
2018-09-08T04:26:02.945Z,21.29
2018-09-08T04:28:34.506Z,21.62
2018-09-08T04:31:05.925Z,21.87
2018-09-08T04:33:36.816Z,22.00
2018-09-08T04:36:07.215Z,21.90
2018-09-08T04:38:36.908Z,22.06
2018-09-08T04:41:06.931Z,22.11
2018-09-08T04:43:38.035Z,22.21
2018-09-08T04:46:09.404Z,22.19
2018-09-08T04:48:39.675Z,22.29
2018-09-08T04:51:09.444Z,22.38
2018-09-08T04:53:39.148Z,22.39
2018-09-08T04:56:09.289Z,22.55
2018-09-08T04:58:39.492Z,22.72
2018-09-08T05:01:09.864Z,22.73
2018-09-08T05:03:40.039Z,22.66
2018-09-08T05:06:10.778Z,22.91
2018-09-08T05:08:40.898Z,23.03
2018-09-08T05:11:11.003Z,23.28
2018-09-08T05:13:40.998Z,23.37
2018-09-08T05:16:12.578Z,23.29
2018-09-08T05:18:42.852Z,23.44
2018-09-08T05:21:14.439Z,23.44
2018-09-08T05:23:45.584Z,23.60
2018-09-08T05:26:15.830Z,23.78
2018-09-08T05:28:46.038Z,24.03
2018-09-08T05:31:17.557Z,24.53
2018-09-08T05:33:47.782Z,25.62
2018-09-08T05:36:18.074Z,25.63
2018-09-08T05:38:48.222Z,25.78
2018-09-08T05:41:18.277Z,26.33
2018-09-08T05:43:49.025Z,26.99
2018-09-08T05:46:19.801Z,27.63
2018-09-08T05:48:50.107Z,28.58
2018-09-08T05:51:20.327Z,27.50
2018-09-08T05:53:51.346Z,27.70
2018-09-08T05:56:21.247Z,28.46
2018-09-08T05:58:51.671Z,29.14
2018-09-08T06:01:22.265Z,29.07
2018-09-08T06:03:52.847Z,28.18
2018-09-08T06:06:23.389Z,28.53
2018-09-08T06:08:53.771Z,29.70
2018-09-08T06:11:24.019Z,30.10
2018-09-08T06:13:56.199Z,30.03
2018-09-08T06:16:26.423Z,29.42
2018-09-08T06:18:56.616Z,29.34
2018-09-08T06:21:26.840Z,32.10
2018-09-08T06:23:58.846Z,33.53
2018-09-08T06:26:28.937Z,30.40
2018-09-08T06:29:01.854Z,29.43
2018-09-08T06:31:32.068Z,28.34
2018-09-08T06:34:03.451Z,28.89
2018-09-08T06:36:33.627Z,30.99
2018-09-08T06:39:04.256Z,33.50
2018-09-08T06:41:34.383Z,35.22
2018-09-08T06:44:04.542Z,32.90
2018-09-08T06:46:35.955Z,31.65
2018-09-08T06:49:06.859Z,29.51
2018-09-08T06:51:38.023Z,28.44
2018-09-08T06:54:08.886Z,28.67
2018-09-08T06:56:39.477Z,29.52
2018-09-08T06:59:09.665Z,30.07
2018-09-08T07:01:39.988Z,29.91
2018-09-08T07:04:10.711Z,29.40
2018-09-08T07:06:41.070Z,29.02
2018-09-08T07:09:12.393Z,27.96
2018-09-08T07:11:43.450Z,27.94
2018-09-08T07:14:13.827Z,27.79
2018-09-08T07:16:44.286Z,28.08
2018-09-08T07:19:14.348Z,28.12
2018-09-08T07:21:44.582Z,27.93
2018-09-08T07:24:17.299Z,27.26
2018-09-08T07:26:47.622Z,26.86
2018-09-08T07:29:17.803Z,27.27
2018-09-08T07:31:47.809Z,27.42
2018-09-08T07:34:19.030Z,27.27
2018-09-08T07:36:49.309Z,26.85
2018-09-08T07:39:19.289Z,26.66
2018-09-08T07:41:49.577Z,26.63
2018-09-08T07:44:19.550Z,26.59
2018-09-08T07:46:49.596Z,27.19
2018-09-08T07:49:20.381Z,27.22
2018-09-08T07:51:50.757Z,27.69
2018-09-08T07:54:22.412Z,27.29
2018-09-08T07:56:52.656Z,27.63
2018-09-08T07:59:24.618Z,27.81
2018-09-08T08:01:56.160Z,28.50
2018-09-08T08:04:26.440Z,28.61
2018-09-08T08:06:57.181Z,29.03
2018-09-08T08:09:27.901Z,28.39
2018-09-08T08:11:58.528Z,28.89
2018-09-08T08:14:28.867Z,28.79
2018-09-08T08:16:59.569Z,28.51
2018-09-08T08:19:29.945Z,28.67
2018-09-08T08:22:00.007Z,29.04
2018-09-08T08:24:29.834Z,29.45
2018-09-08T08:27:00.444Z,30.21
2018-09-08T08:29:30.849Z,30.51
2018-09-08T08:32:00.702Z,30.55
2018-09-08T08:34:30.681Z,30.44
2018-09-08T08:37:01.530Z,30.37
2018-09-08T08:39:31.637Z,29.94
2018-09-08T08:42:01.452Z,29.98
2018-09-08T08:44:31.896Z,29.95
2018-09-08T08:47:02.294Z,30.11
2018-09-08T08:49:33.351Z,29.60
2018-09-08T08:52:13.930Z,29.64
2018-09-08T08:54:48.283Z,29.71
2018-09-08T08:57:18.568Z,29.24
2018-09-08T08:59:48.499Z,28.64
2018-09-08T09:02:18.342Z,28.57
2018-09-08T09:04:48.197Z,28.69
2018-09-08T09:07:18.997Z,28.49
2018-09-08T09:09:48.812Z,28.33
2018-09-08T09:12:19.088Z,28.01
2018-09-08T09:14:48.992Z,27.82
2018-09-08T09:17:18.762Z,27.17
2018-09-08T09:19:59.605Z,27.16
2018-09-08T09:22:40.161Z,26.71
2018-09-08T09:25:10.982Z,26.65
2018-09-08T09:27:49.485Z,27.16
2018-09-08T09:30:21.758Z,27.55
2018-09-08T09:32:51.745Z,27.39
2018-09-08T09:35:22.917Z,27.96
2018-09-08T09:37:53.430Z,28.90
2018-09-08T09:40:25.287Z,29.38
2018-09-08T09:42:55.468Z,29.63
2018-09-08T09:45:25.897Z,29.81
2018-09-08T09:47:58.089Z,29.70
2018-09-08T09:50:30.159Z,28.90
2018-09-08T09:53:00.441Z,28.70
2018-09-08T09:55:31.305Z,28.68
2018-09-08T09:58:01.678Z,28.70
2018-09-08T10:00:37.240Z,28.00
2018-09-08T10:03:07.536Z,28.11
2018-09-08T10:05:38.220Z,27.91
2018-09-08T10:08:08.470Z,27.82
2018-09-08T10:10:38.652Z,27.98
2018-09-08T10:13:08.868Z,27.98
2018-09-08T10:15:39.458Z,28.08
2018-09-08T10:18:09.657Z,28.21
2018-09-08T10:20:39.772Z,28.27
2018-09-08T10:23:13.012Z,28.49
2018-09-08T10:25:43.369Z,28.29
2018-09-08T10:28:13.516Z,27.97
2018-09-08T10:30:43.523Z,27.66
2018-09-08T10:33:15.971Z,27.87
2018-09-08T10:35:46.106Z,28.32
2018-09-08T10:38:16.277Z,28.44
2018-09-08T10:40:46.483Z,28.13
2018-09-08T10:43:16.673Z,27.75
2018-09-08T10:45:47.807Z,27.97
2018-09-08T10:48:18.716Z,28.15
2018-09-08T10:50:48.801Z,28.04
2018-09-08T10:53:19.284Z,28.05
2018-09-08T10:55:50.336Z,28.40
2018-09-08T10:58:20.358Z,28.58
2018-09-08T11:00:50.473Z,28.52
2018-09-08T11:03:20.494Z,28.52
2018-09-08T11:05:50.721Z,28.66
2018-09-08T11:08:24.891Z,28.21
2018-09-08T11:10:55.426Z,28.21
2018-09-08T11:13:26.304Z,28.32
2018-09-08T11:15:57.645Z,28.45
2018-09-08T11:18:27.975Z,28.79
2018-09-08T11:20:58.492Z,28.75
2018-09-08T11:23:28.739Z,28.64
2018-09-08T11:25:59.096Z,28.93
2018-09-08T11:28:29.221Z,28.90
2018-09-08T11:31:00.607Z,29.10
2018-09-08T11:33:31.324Z,28.78
2018-09-08T11:36:05.136Z,28.94
2018-09-08T11:38:35.420Z,28.95
2018-09-08T11:41:06.865Z,29.00
2018-09-08T11:43:37.343Z,28.95
2018-09-08T11:46:08.531Z,28.66
2018-09-08T11:48:38.499Z,28.81
2018-09-08T11:51:09.894Z,29.12
2018-09-08T11:53:40.244Z,29.34
2018-09-08T11:56:10.551Z,29.40
2018-09-08T11:58:40.819Z,29.15
2018-09-08T12:01:12.687Z,28.79
2018-09-08T12:03:43.848Z,28.92
2018-09-08T12:06:14.103Z,29.07
2018-09-08T12:08:44.227Z,29.04
2018-09-08T12:11:14.568Z,29.09
2018-09-08T12:13:44.585Z,29.23
2018-09-08T12:16:16.731Z,29.42
2018-09-08T12:18:46.783Z,29.13
2018-09-08T12:21:17.422Z,28.78
2018-09-08T12:23:48.317Z,28.63
2018-09-08T12:26:18.394Z,28.48
2018-09-08T12:28:48.850Z,28.58
2018-09-08T12:31:19.032Z,28.81
2018-09-08T12:33:49.250Z,29.02
2018-09-08T12:36:20.397Z,29.01
2018-09-08T12:38:53.159Z,28.87
2018-09-08T12:41:23.583Z,28.94
2018-09-08T12:43:53.697Z,28.96
2018-09-08T12:46:24.582Z,28.78
2018-09-08T12:48:56.554Z,28.60
2018-09-08T12:51:26.991Z,28.44
2018-09-08T12:53:58.430Z,28.37
2018-09-08T12:56:30.584Z,28.16
2018-09-08T12:59:01.388Z,28.14
2018-09-08T13:01:33.192Z,27.86
2018-09-08T13:04:05.776Z,27.62
2018-09-08T13:06:36.582Z,27.67
2018-09-08T13:09:07.380Z,27.56
2018-09-08T13:11:38.250Z,27.64
2018-09-08T13:14:08.858Z,27.20
2018-09-08T13:16:39.727Z,26.86
2018-09-08T13:19:10.347Z,26.95
2018-09-08T13:21:40.431Z,26.86
2018-09-08T13:24:10.769Z,26.50
2018-09-08T13:26:42.309Z,26.65
2018-09-08T13:29:17.213Z,26.87
2018-09-08T13:31:47.472Z,26.94
2018-09-08T13:34:17.591Z,26.61
2018-09-08T13:36:47.718Z,26.24
2018-09-08T13:39:21.723Z,26.33
2018-09-08T13:41:52.423Z,26.47
2018-09-08T13:44:22.465Z,26.55
2018-09-08T13:46:52.792Z,26.58
2018-09-08T13:49:23.708Z,26.73
2018-09-08T13:51:53.983Z,26.95
2018-09-08T13:54:24.960Z,27.03
2018-09-08T13:56:55.208Z,27.10
2018-09-08T13:59:25.426Z,26.65
2018-09-08T14:01:56.002Z,26.61
2018-09-08T14:04:26.967Z,26.56
2018-09-08T14:06:57.539Z,26.57
2018-09-08T14:09:28.318Z,26.66
2018-09-08T14:11:58.664Z,26.24
2018-09-08T14:14:28.751Z,26.11
2018-09-08T14:16:59.155Z,25.80
2018-09-08T14:19:29.331Z,25.79
2018-09-08T14:21:59.454Z,25.89
2018-09-08T14:24:32.469Z,25.97
2018-09-08T14:27:03.035Z,25.93
2018-09-08T14:29:33.210Z,26.00
2018-09-08T14:32:03.651Z,25.91
2018-09-08T14:34:34.418Z,25.87
2018-09-08T14:37:05.576Z,25.76
2018-09-08T14:39:35.725Z,25.78
2018-09-08T14:42:05.896Z,25.64
2018-09-08T14:44:36.223Z,25.45
2018-09-08T14:47:07.645Z,25.69
2018-09-08T14:49:37.678Z,25.83
2018-09-08T14:52:07.656Z,25.73
2018-09-08T14:54:38.038Z,25.42
2018-09-08T14:57:09.013Z,25.45
2018-09-08T14:59:39.189Z,25.26
2018-09-08T15:02:09.424Z,25.04
2018-09-08T15:04:40.389Z,24.89
2018-09-08T15:07:11.094Z,24.66
2018-09-08T15:09:41.289Z,24.75
2018-09-08T15:12:12.357Z,24.67
2018-09-08T15:14:42.478Z,24.53
2018-09-08T15:17:12.576Z,24.38
2018-09-08T15:19:42.864Z,24.40
2018-09-08T15:22:13.949Z,24.43
2018-09-08T15:24:44.162Z,24.38
2018-09-08T15:27:14.445Z,24.45
2018-09-08T15:29:45.525Z,24.56
2018-09-08T15:32:16.423Z,24.64
2018-09-08T15:34:49.149Z,24.72
2018-09-08T15:37:19.606Z,24.73
2018-09-08T15:39:50.013Z,24.79
2018-09-08T15:42:20.702Z,24.61
2018-09-08T15:44:51.106Z,24.69
2018-09-08T15:47:22.209Z,24.77
2018-09-08T15:49:52.576Z,24.71
2018-09-08T15:52:22.719Z,24.67
2018-09-08T15:54:53.174Z,24.66
2018-09-08T15:57:23.589Z,24.56
2018-09-08T15:59:53.732Z,24.53
2018-09-08T16:02:24.884Z,24.36
2018-09-08T16:04:58.590Z,24.42
2018-09-08T16:07:32.056Z,24.37
2018-09-08T16:10:03.618Z,24.27
2018-09-08T16:12:35.174Z,24.19
2018-09-08T16:15:05.391Z,24.20
2018-09-08T16:17:35.705Z,24.24
2018-09-08T16:20:06.335Z,24.13
2018-09-08T16:22:37.180Z,24.02
2018-09-08T16:25:07.755Z,23.98
2018-09-08T16:27:38.133Z,23.95
2018-09-08T16:30:08.742Z,23.94
2018-09-08T16:32:40.952Z,23.86
2018-09-08T16:35:11.183Z,23.77
2018-09-08T16:37:41.801Z,23.66
2018-09-08T16:40:12.387Z,23.63
2018-09-08T16:42:43.942Z,23.65
2018-09-08T16:45:14.251Z,23.47
2018-09-08T16:47:47.230Z,23.47
2018-09-08T16:50:18.918Z,23.42
2018-09-08T16:52:49.174Z,23.39
2018-09-08T16:55:19.449Z,23.40
2018-09-08T16:57:51.809Z,23.30
2018-09-08T17:00:22.704Z,23.36
2018-09-08T17:02:54.008Z,23.24
2018-09-08T17:05:25.419Z,23.19
2018-09-08T17:07:55.680Z,23.20
2018-09-08T17:10:26.819Z,23.11
2018-09-08T17:12:58.589Z,23.15
2018-09-08T17:15:28.684Z,23.20
2018-09-08T17:17:58.916Z,23.17
2018-09-08T17:20:30.806Z,23.21
2018-09-08T17:23:01.177Z,23.17
2018-09-08T17:25:32.024Z,23.17
2018-09-08T17:28:02.142Z,23.11
2018-09-08T17:30:32.197Z,23.08
2018-09-08T17:33:02.822Z,23.10
2018-09-08T17:35:32.969Z,23.12
2018-09-08T17:38:02.878Z,23.15
2018-09-08T17:40:33.278Z,23.19
2018-09-08T17:43:04.213Z,23.21
2018-09-08T17:45:34.322Z,23.17
2018-09-08T17:48:04.292Z,23.11
2018-09-08T17:50:35.303Z,23.17
2018-09-08T17:53:05.225Z,23.20
2018-09-08T17:55:35.638Z,23.21
2018-09-08T17:58:06.647Z,23.25
2018-09-08T18:00:38.797Z,23.26
2018-09-08T18:03:09.027Z,23.28
2018-09-08T18:05:39.206Z,23.31
2018-09-08T18:08:10.064Z,23.30
2018-09-08T18:10:40.198Z,23.30
2018-09-08T18:13:11.613Z,23.27
2018-09-08T18:15:45.426Z,23.30
2018-09-08T18:18:15.601Z,23.35
2018-09-08T18:20:48.021Z,23.41
2018-09-08T18:23:18.002Z,23.47
2018-09-08T18:25:48.275Z,23.45
2018-09-08T18:28:19.587Z,23.35
2018-09-08T18:30:50.832Z,23.25
2018-09-08T18:33:20.975Z,23.17
2018-09-08T18:35:53.759Z,23.07
2018-09-08T18:38:24.163Z,22.92
2018-09-08T18:40:55.043Z,22.82
2018-09-08T18:43:26.244Z,22.88
2018-09-08T18:45:58.577Z,22.84
2018-09-08T18:48:28.852Z,22.66
2018-09-08T18:50:58.960Z,22.54
2018-09-08T18:53:30.158Z,22.39
2018-09-08T18:56:01.607Z,22.41
2018-09-08T18:58:32.810Z,22.45
2018-09-08T19:01:03.740Z,22.41
2018-09-08T19:03:34.090Z,22.43
2018-09-08T19:06:04.831Z,22.34
2018-09-08T19:08:40.020Z,22.26
2018-09-08T19:11:11.046Z,22.13
2018-09-08T19:13:42.068Z,21.90
2018-09-08T19:16:12.829Z,21.83
2018-09-08T19:18:44.235Z,21.70
2018-09-08T19:21:14.520Z,21.63
2018-09-08T19:23:44.738Z,21.58
2018-09-08T19:26:15.153Z,21.57
2018-09-08T19:28:50.981Z,21.67
2018-09-08T19:31:21.414Z,21.55
2018-09-08T19:33:51.793Z,21.71
2018-09-08T19:36:23.077Z,21.74
2018-09-08T19:38:53.579Z,21.73
2018-09-08T19:41:23.981Z,21.73
2018-09-08T19:43:55.947Z,21.79
2018-09-08T19:49:06.141Z,21.55
2018-09-08T19:51:39.761Z,21.44
2018-09-08T19:54:11.384Z,21.39
2018-09-08T19:56:46.578Z,21.27
2018-09-08T19:59:16.631Z,21.17
2018-09-08T20:01:47.282Z,21.27
2018-09-08T20:04:18.020Z,21.34
2018-09-08T20:06:47.997Z,21.33
2018-09-08T20:09:19.294Z,21.33
2018-09-08T20:11:50.195Z,21.40
2018-09-08T20:14:22.025Z,21.34
2018-09-08T20:16:52.359Z,21.34
2018-09-08T20:19:22.634Z,21.30
2018-09-08T20:21:52.590Z,21.33
2018-09-08T20:26:52.443Z,21.38
2018-09-08T20:29:22.690Z,21.31
2018-09-08T20:31:55.756Z,21.24
2018-09-08T20:34:25.917Z,21.18
2018-09-08T20:36:56.192Z,21.22
2018-09-08T20:39:26.419Z,21.32
2018-09-08T20:41:56.558Z,21.30
2018-09-08T20:44:26.688Z,21.31
2018-09-08T20:46:57.704Z,21.39
2018-09-08T20:49:28.028Z,21.34
2018-09-08T20:51:58.582Z,21.35
2018-09-08T20:54:28.875Z,21.32
2018-09-08T20:56:59.817Z,21.31
2018-09-08T20:59:30.740Z,21.29
2018-09-08T21:02:01.500Z,21.29
2018-09-08T21:04:31.688Z,21.25
2018-09-08T21:07:02.088Z,21.26
2018-09-08T21:09:32.320Z,21.26
2018-09-08T21:12:02.533Z,21.20
2018-09-08T21:14:32.534Z,21.16
2018-09-08T21:17:05.076Z,21.03
2018-09-08T21:19:35.195Z,20.98
2018-09-08T21:22:05.736Z,21.02
2018-09-08T21:24:36.571Z,21.05
2018-09-08T21:27:06.829Z,21.02
2018-09-08T21:29:37.652Z,20.91
2018-09-08T21:32:07.623Z,20.83
2018-09-08T21:34:37.568Z,20.78
2018-09-08T21:37:08.161Z,20.79
2018-09-08T21:39:38.386Z,20.80
2018-09-08T21:42:12.067Z,20.77
2018-09-08T21:44:44.262Z,20.70
2018-09-08T21:47:14.317Z,20.73
2018-09-08T21:49:44.816Z,20.71
2018-09-08T21:52:15.021Z,20.77
2018-09-08T21:54:45.025Z,20.75
2018-09-08T21:57:15.416Z,20.73
2018-09-08T21:59:45.591Z,20.69
2018-09-08T22:02:15.784Z,20.64
2018-09-08T22:04:45.744Z,20.65
2018-09-08T22:07:15.950Z,20.58
2018-09-08T22:09:46.104Z,20.64
2018-09-08T22:12:16.735Z,20.74
2018-09-08T22:14:47.020Z,20.76
2018-09-08T22:17:17.116Z,20.86
2018-09-08T22:19:47.239Z,20.92
2018-09-08T22:22:17.469Z,20.89
2018-09-08T22:24:47.792Z,20.94
2018-09-08T22:27:17.918Z,20.84
2018-09-08T22:29:48.072Z,20.79
2018-09-08T22:32:18.283Z,20.82
2018-09-08T22:34:48.468Z,20.81
2018-09-08T22:37:18.417Z,20.79
2018-09-08T22:39:48.784Z,20.84
2018-09-08T22:42:20.194Z,20.78
2018-09-08T22:44:50.925Z,20.83
2018-09-08T22:47:21.192Z,20.85
2018-09-08T22:49:51.392Z,20.93
2018-09-08T22:52:22.988Z,20.80
2018-09-08T22:54:53.203Z,20.77
2018-09-08T22:57:23.532Z,20.70
2018-09-08T22:59:53.631Z,20.68
2018-09-08T23:02:24.418Z,20.61
2018-09-08T23:04:55.673Z,20.40
2018-09-08T23:07:26.180Z,20.35
2018-09-08T23:09:56.461Z,20.24
2018-09-08T23:12:27.147Z,20.20
2018-09-08T23:15:00.118Z,20.15
2018-09-08T23:17:30.334Z,20.18
2018-09-08T23:20:00.787Z,20.09
2018-09-08T23:22:31.630Z,20.00
2018-09-08T23:25:03.348Z,20.10
2018-09-08T23:27:33.656Z,20.18
2018-09-08T23:30:03.962Z,20.10
2018-09-08T23:32:34.178Z,20.26
2018-09-08T23:35:05.438Z,20.24
2018-09-08T23:37:35.722Z,20.23
2018-09-08T23:40:06.070Z,20.30
2018-09-08T23:42:36.284Z,20.28
2018-09-08T23:45:08.752Z,20.39
2018-09-08T23:47:39.149Z,20.36
2018-09-08T23:50:10.529Z,20.33
2018-09-08T23:52:40.996Z,20.44
2018-09-08T23:55:12.568Z,20.29
2018-09-08T23:57:43.257Z,20.17
